This is the latest recevied weather packets stored in our database for station/object W4IFI. If no packets are shown the sender has not sent any weather packets the latest 10 day(s).
| Time | Temp. | Humidity | Pressure | Rain* | Wind** | Luminosity | Snow |
|---|---|---|---|---|---|---|---|
| 1777648338 | 8.33° C | 48% | 1016.1 hPa | 0 mm | - | - | - |
| 1777647003 | 8.33° C | 43% | 1016 hPa | 0 mm | - | - | - |
| 1777646703 | 8.33° C | 43% | 1016.1 hPa | 0 mm | - | - | - |
| 1777645203 | 6.67° C | 43% | 1016 hPa | 0 mm | - | - | - |
| 1777644438 | 6.11° C | 44% | 1016 hPa | 0 mm | - | - | - |
| 1777643103 | 5° C | 46% | 1015.9 hPa | 0 mm | - | - | - |
| 1777641903 | 4.44° C | 49% | 1015.6 hPa | 0 mm | - | - | - |
| 1777641737 | 3.89° C | 50% | 1015.6 hPa | 0 mm | - | - | - |
| 1777632603 | 2.22° C | 54% | 1014.7 hPa | 0 mm | - | - | - |
| 1777631703 | 2.22° C | 54% | 1014.6 hPa | 0 mm | - | - | - |
| 1777631403 | 2.22° C | 55% | 1014.6 hPa | 0 mm | - | - | - |
| 1777627803 | 2.22° C | 53% | 1014.5 hPa | 0 mm | - | - | - |
| 1777627503 | 2.22° C | 52% | 1014.4 hPa | 0 mm | - | - | - |
| 1777626603 | 2.78° C | 50% | 1014.4 hPa | 0 mm | - | - | - |
| 1777626003 | 2.78° C | 49% | 1014.5 hPa | 0 mm | - | - | - |
| 1777625703 | 2.78° C | 48% | 1014.5 hPa | 0 mm | - | - | - |
| 1777625403 | 3.33° C | 48% | 1014.4 hPa | 0 mm | - | - | - |
| 1777625103 | 3.33° C | 48% | 1014.3 hPa | 0 mm | - | - | - |
| 1777624803 | 3.33° C | 48% | 1014.3 hPa | 0 mm | - | - | - |
| 1777622238 | 2.22° C | 49% | 1014.3 hPa | 0 mm | - | - | - |
| 1777613703 | 2.78° C | 47% | 1013.9 hPa | 0 mm | - | - | - |
| 1777612036 | 1.67° C | 47% | 1013.8 hPa | 0 mm | - | - | - |
| 1777610403 | 2.78° C | 43% | 1013.7 hPa | 0 mm | - | - | - |
| 1777607703 | 3.89° C | 40% | 1013.4 hPa | 0 mm | - | - | - |
| 1777606203 | 5.56° C | 36% | 1013.2 hPa | 0 mm | - | - | - |
* Rain latest hour (hover to see other rain measurements)
** Current wind speed in m/s (hover to see current wind gust speed)